sensor_id;sensor_type;location;lat;lon;timestamp;P1;durP1;ratioP1;P2;durP2;ratioP2
37157;SDS011;23050;51.776;22.638;2023-01-30T00:01:12;35.22;;;17.58;;
37157;SDS011;23050;51.776;22.638;2023-01-30T00:03:42;37.10;;;18.92;;
37157;SDS011;23050;51.776;22.638;2023-01-30T00:06:08;44.78;;;22.40;;
37157;SDS011;23050;51.776;22.638;2023-01-30T00:08:34;45.75;;;21.27;;
37157;SDS011;23050;51.776;22.638;2023-01-30T00:11:07;33.17;;;17.25;;
37157;SDS011;23050;51.776;22.638;2023-01-30T00:13:34;41.17;;;19.50;;
37157;SDS011;23050;51.776;22.638;2023-01-30T00:16:00;42.42;;;20.95;;
37157;SDS011;23050;51.776;22.638;2023-01-30T00:18:26;45.92;;;20.08;;
37157;SDS011;23050;51.776;22.638;2023-01-30T00:20:58;41.30;;;19.58;;
37157;SDS011;23050;51.776;22.638;2023-01-30T00:23:25;36.17;;;17.67;;
37157;SDS011;23050;51.776;22.638;2023-01-30T00:25:52;43.88;;;20.20;;
37157;SDS011;23050;51.776;22.638;2023-01-30T00:28:17;39.03;;;18.42;;
37157;SDS011;23050;51.776;22.638;2023-01-30T00:30:43;42.78;;;19.05;;
37157;SDS011;23050;51.776;22.638;2023-01-30T00:33:09;38.45;;;18.70;;
37157;SDS011;23050;51.776;22.638;2023-01-30T00:35:36;41.47;;;20.65;;
37157;SDS011;23050;51.776;22.638;2023-01-30T00:38:01;44.40;;;19.73;;
37157;SDS011;23050;51.776;22.638;2023-01-30T00:40:27;44.17;;;19.77;;
37157;SDS011;23050;51.776;22.638;2023-01-30T00:42:54;38.05;;;19.42;;
37157;SDS011;23050;51.776;22.638;2023-01-30T00:45:39;44.67;;;19.75;;
37157;SDS011;23050;51.776;22.638;2023-01-30T00:48:25;43.28;;;21.27;;
37157;SDS011;23050;51.776;22.638;2023-01-30T00:50:51;51.50;;;25.20;;
37157;SDS011;23050;51.776;22.638;2023-01-30T00:53:16;55.35;;;22.85;;
37157;SDS011;23050;51.776;22.638;2023-01-30T00:55:42;55.15;;;24.73;;
37157;SDS011;23050;51.776;22.638;2023-01-30T00:58:09;54.95;;;26.40;;
37157;SDS011;23050;51.776;22.638;2023-01-30T01:00:35;57.83;;;27.00;;
37157;SDS011;23050;51.776;22.638;2023-01-30T01:03:01;56.75;;;28.63;;
37157;SDS011;23050;51.776;22.638;2023-01-30T01:05:26;99.13;;;42.25;;
37157;SDS011;23050;51.776;22.638;2023-01-30T01:07:53;61.00;;;29.35;;
37157;SDS011;23050;51.776;22.638;2023-01-30T01:10:19;53.97;;;27.73;;
37157;SDS011;23050;51.776;22.638;2023-01-30T01:12:45;54.72;;;25.30;;
37157;SDS011;23050;51.776;22.638;2023-01-30T01:15:11;47.65;;;24.23;;
37157;SDS011;23050;51.776;22.638;2023-01-30T01:17:38;58.25;;;25.90;;
37157;SDS011;23050;51.776;22.638;2023-01-30T01:20:05;53.38;;;25.88;;
37157;SDS011;23050;51.776;22.638;2023-01-30T01:22:32;50.10;;;23.52;;
37157;SDS011;23050;51.776;22.638;2023-01-30T01:24:58;54.80;;;25.08;;
37157;SDS011;23050;51.776;22.638;2023-01-30T01:27:23;53.85;;;25.67;;
37157;SDS011;23050;51.776;22.638;2023-01-30T01:29:49;59.97;;;25.80;;
37157;SDS011;23050;51.776;22.638;2023-01-30T01:32:14;47.47;;;23.23;;
37157;SDS011;23050;51.776;22.638;2023-01-30T01:34:40;46.95;;;22.52;;
37157;SDS011;23050;51.776;22.638;2023-01-30T01:37:06;46.70;;;22.92;;
37157;SDS011;23050;51.776;22.638;2023-01-30T01:39:32;50.80;;;24.38;;
37157;SDS011;23050;51.776;22.638;2023-01-30T01:42:16;40.95;;;20.60;;
37157;SDS011;23050;51.776;22.638;2023-01-30T01:48:01;43.08;;;19.92;;
37157;SDS011;23050;51.776;22.638;2023-01-30T01:50:38;41.97;;;21.77;;
37157;SDS011;23050;51.776;22.638;2023-01-30T01:53:07;45.70;;;21.85;;
37157;SDS011;23050;51.776;22.638;2023-01-30T01:55:36;35.85;;;18.38;;
37157;SDS011;23050;51.776;22.638;2023-01-30T01:58:12;42.25;;;20.90;;
37157;SDS011;23050;51.776;22.638;2023-01-30T02:00:51;42.47;;;21.05;;
37157;SDS011;23050;51.776;22.638;2023-01-30T02:03:20;44.65;;;19.90;;
37157;SDS011;23050;51.776;22.638;2023-01-30T02:05:49;38.33;;;18.85;;
37157;SDS011;23050;51.776;22.638;2023-01-30T02:08:24;49.35;;;19.35;;
37157;SDS011;23050;51.776;22.638;2023-01-30T02:13:34;38.85;;;19.80;;
37157;SDS011;23050;51.776;22.638;2023-01-30T02:15:59;30.42;;;13.85;;
37157;SDS011;23050;51.776;22.638;2023-01-30T02:18:29;33.53;;;18.35;;
37157;SDS011;23050;51.776;22.638;2023-01-30T02:24:01;39.28;;;18.73;;
37157;SDS011;23050;51.776;22.638;2023-01-30T02:30:13;37.60;;;17.05;;
37157;SDS011;23050;51.776;22.638;2023-01-30T02:35:49;36.40;;;18.25;;
37157;SDS011;23050;51.776;22.638;2023-01-30T02:38:30;38.03;;;18.23;;
37157;SDS011;23050;51.776;22.638;2023-01-30T02:41:27;42.03;;;20.50;;
37157;SDS011;23050;51.776;22.638;2023-01-30T02:47:01;41.38;;;22.90;;
37157;SDS011;23050;51.776;22.638;2023-01-30T02:49:39;34.28;;;17.80;;
37157;SDS011;23050;51.776;22.638;2023-01-30T02:52:09;32.95;;;16.00;;
37157;SDS011;23050;51.776;22.638;2023-01-30T02:54:36;33.65;;;19.42;;
37157;SDS011;23050;51.776;22.638;2023-01-30T02:57:02;40.05;;;19.67;;
37157;SDS011;23050;51.776;22.638;2023-01-30T02:59:32;34.00;;;16.45;;
37157;SDS011;23050;51.776;22.638;2023-01-30T03:12:54;33.15;;;15.80;;
37157;SDS011;23050;51.776;22.638;2023-01-30T03:15:33;31.77;;;15.50;;
37157;SDS011;23050;51.776;22.638;2023-01-30T03:18:02;32.53;;;14.90;;
37157;SDS011;23050;51.776;22.638;2023-01-30T03:20:28;38.58;;;15.80;;
37157;SDS011;23050;51.776;22.638;2023-01-30T03:22:55;36.45;;;17.92;;
37157;SDS011;23050;51.776;22.638;2023-01-30T03:25:22;36.08;;;16.63;;
37157;SDS011;23050;51.776;22.638;2023-01-30T03:27:51;33.55;;;17.67;;
37157;SDS011;23050;51.776;22.638;2023-01-30T03:30:19;31.95;;;16.73;;
37157;SDS011;23050;51.776;22.638;2023-01-30T03:32:45;33.72;;;17.23;;
37157;SDS011;23050;51.776;22.638;2023-01-30T03:35:10;27.60;;;13.95;;
37157;SDS011;23050;51.776;22.638;2023-01-30T03:37:36;37.65;;;18.98;;
37157;SDS011;23050;51.776;22.638;2023-01-30T03:40:02;30.73;;;16.30;;
37157;SDS011;23050;51.776;22.638;2023-01-30T03:42:28;28.08;;;13.77;;
37157;SDS011;23050;51.776;22.638;2023-01-30T03:44:54;31.63;;;13.90;;
37157;SDS011;23050;51.776;22.638;2023-01-30T03:47:20;30.88;;;13.18;;
37157;SDS011;23050;51.776;22.638;2023-01-30T03:49:45;33.90;;;18.75;;
37157;SDS011;23050;51.776;22.638;2023-01-30T03:52:11;29.05;;;16.00;;
37157;SDS011;23050;51.776;22.638;2023-01-30T03:54:36;29.77;;;14.35;;
37157;SDS011;23050;51.776;22.638;2023-01-30T03:57:02;28.20;;;14.07;;
37157;SDS011;23050;51.776;22.638;2023-01-30T03:59:28;24.15;;;12.85;;
37157;SDS011;23050;51.776;22.638;2023-01-30T04:01:53;29.42;;;13.55;;
37157;SDS011;23050;51.776;22.638;2023-01-30T04:04:19;26.40;;;14.23;;
37157;SDS011;23050;51.776;22.638;2023-01-30T04:06:44;30.73;;;14.68;;
37157;SDS011;23050;51.776;22.638;2023-01-30T04:09:10;27.58;;;13.23;;
37157;SDS011;23050;51.776;22.638;2023-01-30T04:11:35;33.33;;;15.15;;
37157;SDS011;23050;51.776;22.638;2023-01-30T04:14:01;29.38;;;14.68;;
37157;SDS011;23050;51.776;22.638;2023-01-30T04:16:26;25.55;;;14.63;;
37157;SDS011;23050;51.776;22.638;2023-01-30T04:18:52;23.88;;;13.65;;
37157;SDS011;23050;51.776;22.638;2023-01-30T04:21:18;26.80;;;12.60;;
37157;SDS011;23050;51.776;22.638;2023-01-30T04:23:44;26.40;;;13.38;;
37157;SDS011;23050;51.776;22.638;2023-01-30T04:26:10;24.05;;;11.98;;
37157;SDS011;23050;51.776;22.638;2023-01-30T04:28:36;33.22;;;15.30;;
37157;SDS011;23050;51.776;22.638;2023-01-30T04:31:02;25.20;;;12.43;;
37157;SDS011;23050;51.776;22.638;2023-01-30T04:33:28;29.67;;;15.95;;
37157;SDS011;23050;51.776;22.638;2023-01-30T04:35:54;26.23;;;12.88;;
37157;SDS011;23050;51.776;22.638;2023-01-30T04:38:24;29.50;;;13.45;;
37157;SDS011;23050;51.776;22.638;2023-01-30T04:40:51;31.10;;;13.02;;
37157;SDS011;23050;51.776;22.638;2023-01-30T04:43:18;25.38;;;14.20;;
37157;SDS011;23050;51.776;22.638;2023-01-30T04:45:46;26.13;;;14.10;;
37157;SDS011;23050;51.776;22.638;2023-01-30T04:48:12;32.30;;;15.23;;
37157;SDS011;23050;51.776;22.638;2023-01-30T04:50:39;23.42;;;11.48;;
37157;SDS011;23050;51.776;22.638;2023-01-30T04:53:05;30.50;;;17.50;;
37157;SDS011;23050;51.776;22.638;2023-01-30T04:55:31;29.95;;;14.13;;
37157;SDS011;23050;51.776;22.638;2023-01-30T04:57:56;29.45;;;14.05;;
37157;SDS011;23050;51.776;22.638;2023-01-30T05:00:22;30.20;;;12.55;;
37157;SDS011;23050;51.776;22.638;2023-01-30T05:02:48;25.98;;;13.80;;
37157;SDS011;23050;51.776;22.638;2023-01-30T05:05:13;29.52;;;13.93;;
37157;SDS011;23050;51.776;22.638;2023-01-30T05:07:39;29.02;;;14.18;;
37157;SDS011;23050;51.776;22.638;2023-01-30T05:10:05;32.20;;;15.30;;
37157;SDS011;23050;51.776;22.638;2023-01-30T05:12:31;53.03;;;25.45;;
37157;SDS011;23050;51.776;22.638;2023-01-30T05:14:56;41.90;;;18.95;;
37157;SDS011;23050;51.776;22.638;2023-01-30T05:17:22;38.47;;;20.65;;
37157;SDS011;23050;51.776;22.638;2023-01-30T05:19:47;31.90;;;17.00;;
37157;SDS011;23050;51.776;22.638;2023-01-30T05:22:13;21.33;;;10.35;;
37157;SDS011;23050;51.776;22.638;2023-01-30T05:24:38;25.98;;;12.48;;
37157;SDS011;23050;51.776;22.638;2023-01-30T05:27:04;32.72;;;16.60;;
37157;SDS011;23050;51.776;22.638;2023-01-30T05:29:30;35.30;;;17.92;;
37157;SDS011;23050;51.776;22.638;2023-01-30T05:31:55;31.48;;;16.45;;
37157;SDS011;23050;51.776;22.638;2023-01-30T05:34:21;37.67;;;23.63;;
37157;SDS011;23050;51.776;22.638;2023-01-30T05:36:46;22.13;;;11.45;;
37157;SDS011;23050;51.776;22.638;2023-01-30T05:39:12;34.38;;;14.73;;
37157;SDS011;23050;51.776;22.638;2023-01-30T05:41:38;36.67;;;16.73;;
37157;SDS011;23050;51.776;22.638;2023-01-30T05:44:03;32.80;;;15.68;;
37157;SDS011;23050;51.776;22.638;2023-01-30T05:46:29;27.55;;;16.52;;
37157;SDS011;23050;51.776;22.638;2023-01-30T05:48:54;32.60;;;15.95;;
37157;SDS011;23050;51.776;22.638;2023-01-30T05:51:21;28.52;;;13.85;;
37157;SDS011;23050;51.776;22.638;2023-01-30T05:53:48;22.83;;;12.10;;
37157;SDS011;23050;51.776;22.638;2023-01-30T05:56:14;28.98;;;12.88;;
37157;SDS011;23050;51.776;22.638;2023-01-30T05:58:41;25.77;;;14.20;;
37157;SDS011;23050;51.776;22.638;2023-01-30T06:01:08;23.98;;;12.43;;
37157;SDS011;23050;51.776;22.638;2023-01-30T06:03:36;28.23;;;14.40;;
37157;SDS011;23050;51.776;22.638;2023-01-30T06:06:02;28.25;;;13.25;;
37157;SDS011;23050;51.776;22.638;2023-01-30T06:08:30;28.52;;;13.85;;
37157;SDS011;23050;51.776;22.638;2023-01-30T06:11:03;29.30;;;14.80;;
37157;SDS011;23050;51.776;22.638;2023-01-30T06:13:32;27.38;;;14.75;;
37157;SDS011;23050;51.776;22.638;2023-01-30T06:15:57;30.58;;;15.52;;
37157;SDS011;23050;51.776;22.638;2023-01-30T06:18:24;27.65;;;12.43;;
37157;SDS011;23050;51.776;22.638;2023-01-30T06:20:50;31.00;;;16.48;;
37157;SDS011;23050;51.776;22.638;2023-01-30T06:23:19;24.37;;;12.67;;
37157;SDS011;23050;51.776;22.638;2023-01-30T06:25:46;30.63;;;16.63;;
37157;SDS011;23050;51.776;22.638;2023-01-30T06:28:13;31.85;;;18.25;;
37157;SDS011;23050;51.776;22.638;2023-01-30T06:30:39;31.27;;;15.70;;
37157;SDS011;23050;51.776;22.638;2023-01-30T06:33:05;32.13;;;17.40;;
37157;SDS011;23050;51.776;22.638;2023-01-30T06:35:31;40.10;;;17.45;;
37157;SDS011;23050;51.776;22.638;2023-01-30T06:37:57;33.85;;;19.38;;
37157;SDS011;23050;51.776;22.638;2023-01-30T06:40:22;39.63;;;19.58;;
37157;SDS011;23050;51.776;22.638;2023-01-30T06:42:48;35.38;;;19.60;;
37157;SDS011;23050;51.776;22.638;2023-01-30T06:45:15;35.70;;;17.40;;
37157;SDS011;23050;51.776;22.638;2023-01-30T06:50:10;30.20;;;14.83;;
37157;SDS011;23050;51.776;22.638;2023-01-30T06:52:40;28.20;;;13.02;;
37157;SDS011;23050;51.776;22.638;2023-01-30T06:55:07;30.27;;;18.25;;
37157;SDS011;23050;51.776;22.638;2023-01-30T06:57:34;19.92;;;11.10;;
37157;SDS011;23050;51.776;22.638;2023-01-30T06:59:59;25.77;;;14.18;;
37157;SDS011;23050;51.776;22.638;2023-01-30T07:02:29;25.13;;;13.10;;
37157;SDS011;23050;51.776;22.638;2023-01-30T07:04:58;33.30;;;14.80;;
37157;SDS011;23050;51.776;22.638;2023-01-30T07:07:23;35.33;;;14.65;;
37157;SDS011;23050;51.776;22.638;2023-01-30T07:09:49;33.75;;;15.15;;
37157;SDS011;23050;51.776;22.638;2023-01-30T07:12:15;41.13;;;15.77;;
37157;SDS011;23050;51.776;22.638;2023-01-30T07:14:40;34.38;;;14.45;;
37157;SDS011;23050;51.776;22.638;2023-01-30T07:17:06;44.20;;;24.50;;
37157;SDS011;23050;51.776;22.638;2023-01-30T07:19:32;29.50;;;14.18;;
37157;SDS011;23050;51.776;22.638;2023-01-30T07:21:57;34.60;;;16.25;;
37157;SDS011;23050;51.776;22.638;2023-01-30T07:24:23;42.35;;;18.38;;
37157;SDS011;23050;51.776;22.638;2023-01-30T07:26:48;31.15;;;14.95;;
37157;SDS011;23050;51.776;22.638;2023-01-30T07:29:14;50.00;;;18.45;;
37157;SDS011;23050;51.776;22.638;2023-01-30T07:31:39;41.92;;;18.92;;
37157;SDS011;23050;51.776;22.638;2023-01-30T07:34:05;34.90;;;15.30;;
37157;SDS011;23050;51.776;22.638;2023-01-30T07:36:30;32.00;;;13.52;;
37157;SDS011;23050;51.776;22.638;2023-01-30T07:38:58;31.45;;;14.05;;
37157;SDS011;23050;51.776;22.638;2023-01-30T07:41:25;31.42;;;14.57;;
37157;SDS011;23050;51.776;22.638;2023-01-30T07:43:51;32.75;;;17.50;;
37157;SDS011;23050;51.776;22.638;2023-01-30T07:46:17;40.42;;;19.58;;
37157;SDS011;23050;51.776;22.638;2023-01-30T07:48:43;31.65;;;14.95;;
37157;SDS011;23050;51.776;22.638;2023-01-30T07:51:09;41.42;;;17.67;;
37157;SDS011;23050;51.776;22.638;2023-01-30T07:53:35;37.80;;;18.27;;
37157;SDS011;23050;51.776;22.638;2023-01-30T07:56:07;53.95;;;23.40;;
37157;SDS011;23050;51.776;22.638;2023-01-30T07:58:34;34.03;;;16.90;;
37157;SDS011;23050;51.776;22.638;2023-01-30T08:01:00;33.60;;;16.27;;
37157;SDS011;23050;51.776;22.638;2023-01-30T08:03:25;35.17;;;15.55;;
37157;SDS011;23050;51.776;22.638;2023-01-30T08:05:51;38.88;;;17.33;;
37157;SDS011;23050;51.776;22.638;2023-01-30T08:08:18;30.70;;;12.90;;
37157;SDS011;23050;51.776;22.638;2023-01-30T08:10:43;37.30;;;17.20;;
37157;SDS011;23050;51.776;22.638;2023-01-30T08:13:12;29.13;;;14.13;;
37157;SDS011;23050;51.776;22.638;2023-01-30T08:15:37;31.27;;;15.13;;
37157;SDS011;23050;51.776;22.638;2023-01-30T08:18:03;30.50;;;15.38;;
37157;SDS011;23050;51.776;22.638;2023-01-30T08:20:31;34.88;;;15.45;;
37157;SDS011;23050;51.776;22.638;2023-01-30T08:22:57;35.33;;;17.17;;
37157;SDS011;23050;51.776;22.638;2023-01-30T08:25:24;29.77;;;14.10;;
37157;SDS011;23050;51.776;22.638;2023-01-30T08:27:50;36.80;;;16.63;;
37157;SDS011;23050;51.776;22.638;2023-01-30T08:30:16;31.33;;;12.35;;
37157;SDS011;23050;51.776;22.638;2023-01-30T08:32:43;28.20;;;15.70;;
37157;SDS011;23050;51.776;22.638;2023-01-30T08:35:08;32.05;;;14.55;;
37157;SDS011;23050;51.776;22.638;2023-01-30T08:37:34;20.38;;;9.90;;
37157;SDS011;23050;51.776;22.638;2023-01-30T08:40:00;26.50;;;12.73;;
37157;SDS011;23050;51.776;22.638;2023-01-30T08:42:25;26.10;;;12.98;;
37157;SDS011;23050;51.776;22.638;2023-01-30T08:44:51;28.58;;;13.20;;
37157;SDS011;23050;51.776;22.638;2023-01-30T08:47:17;27.92;;;12.38;;
37157;SDS011;23050;51.776;22.638;2023-01-30T08:49:42;34.30;;;15.20;;
37157;SDS011;23050;51.776;22.638;2023-01-30T08:52:08;27.35;;;14.85;;
37157;SDS011;23050;51.776;22.638;2023-01-30T08:54:34;27.42;;;13.90;;
37157;SDS011;23050;51.776;22.638;2023-01-30T08:56:59;24.67;;;11.18;;
37157;SDS011;23050;51.776;22.638;2023-01-30T08:59:25;33.13;;;14.00;;
37157;SDS011;23050;51.776;22.638;2023-01-30T09:01:50;31.70;;;15.52;;
37157;SDS011;23050;51.776;22.638;2023-01-30T09:04:16;28.65;;;13.82;;
37157;SDS011;23050;51.776;22.638;2023-01-30T09:06:41;36.85;;;16.85;;
37157;SDS011;23050;51.776;22.638;2023-01-30T09:09:07;40.95;;;17.67;;
37157;SDS011;23050;51.776;22.638;2023-01-30T09:11:33;39.20;;;17.15;;
37157;SDS011;23050;51.776;22.638;2023-01-30T09:13:58;37.83;;;17.10;;
37157;SDS011;23050;51.776;22.638;2023-01-30T09:16:24;46.40;;;21.15;;
37157;SDS011;23050;51.776;22.638;2023-01-30T09:18:49;56.63;;;25.08;;
37157;SDS011;23050;51.776;22.638;2023-01-30T09:21:15;52.88;;;24.92;;
37157;SDS011;23050;51.776;22.638;2023-01-30T09:23:40;38.90;;;17.88;;
37157;SDS011;23050;51.776;22.638;2023-01-30T09:26:06;44.47;;;20.95;;
37157;SDS011;23050;51.776;22.638;2023-01-30T09:28:32;37.80;;;17.10;;
37157;SDS011;23050;51.776;22.638;2023-01-30T09:30:58;35.30;;;15.25;;
37157;SDS011;23050;51.776;22.638;2023-01-30T09:33:25;37.88;;;14.32;;
37157;SDS011;23050;51.776;22.638;2023-01-30T09:35:50;45.72;;;18.73;;
37157;SDS011;23050;51.776;22.638;2023-01-30T09:38:16;63.45;;;25.48;;
37157;SDS011;23050;51.776;22.638;2023-01-30T09:40:54;42.38;;;18.17;;
37157;SDS011;23050;51.776;22.638;2023-01-30T09:51:20;36.08;;;18.25;;
37157;SDS011;23050;51.776;22.638;2023-01-30T09:54:14;39.38;;;16.77;;
37157;SDS011;23050;51.776;22.638;2023-01-30T09:56:45;40.85;;;20.60;;
37157;SDS011;23050;51.776;22.638;2023-01-30T09:59:38;38.13;;;16.15;;
37157;SDS011;23050;51.776;22.638;2023-01-30T10:02:39;42.35;;;20.52;;
37157;SDS011;23050;51.776;22.638;2023-01-30T10:05:05;64.07;;;32.33;;
37157;SDS011;23050;51.776;22.638;2023-01-30T10:13:08;45.67;;;19.77;;
37157;SDS011;23050;51.776;22.638;2023-01-30T10:16:08;45.80;;;21.85;;
37157;SDS011;23050;51.776;22.638;2023-01-30T10:24:58;36.15;;;20.38;;
37157;SDS011;23050;51.776;22.638;2023-01-30T10:27:31;53.63;;;26.38;;
37157;SDS011;23050;51.776;22.638;2023-01-30T10:29:59;77.60;;;35.80;;
37157;SDS011;23050;51.776;22.638;2023-01-30T10:32:37;60.40;;;30.63;;
37157;SDS011;23050;51.776;22.638;2023-01-30T10:35:41;64.50;;;29.00;;
37157;SDS011;23050;51.776;22.638;2023-01-30T10:38:20;48.53;;;25.85;;
37157;SDS011;23050;51.776;22.638;2023-01-30T10:40:56;63.72;;;30.90;;
37157;SDS011;23050;51.776;22.638;2023-01-30T10:43:28;64.90;;;33.20;;
37157;SDS011;23050;51.776;22.638;2023-01-30T10:48:58;60.00;;;28.30;;
37157;SDS011;23050;51.776;22.638;2023-01-30T10:51:38;65.38;;;30.65;;
37157;SDS011;23050;51.776;22.638;2023-01-30T10:54:31;57.63;;;28.48;;
37157;SDS011;23050;51.776;22.638;2023-01-30T10:57:26;70.70;;;33.03;;
37157;SDS011;23050;51.776;22.638;2023-01-30T11:00:21;55.17;;;25.65;;
37157;SDS011;23050;51.776;22.638;2023-01-30T11:05:47;54.55;;;24.60;;
37157;SDS011;23050;51.776;22.638;2023-01-30T11:08:17;66.13;;;32.40;;
37157;SDS011;23050;51.776;22.638;2023-01-30T11:10:45;73.82;;;35.60;;
37157;SDS011;23050;51.776;22.638;2023-01-30T11:13:18;56.53;;;28.55;;
37157;SDS011;23050;51.776;22.638;2023-01-30T11:15:46;59.53;;;30.55;;
37157;SDS011;23050;51.776;22.638;2023-01-30T11:18:14;54.85;;;29.40;;
37157;SDS011;23050;51.776;22.638;2023-01-30T11:20:42;59.90;;;30.33;;
37157;SDS011;23050;51.776;22.638;2023-01-30T11:23:31;54.03;;;27.05;;
37157;SDS011;23050;51.776;22.638;2023-01-30T11:25:56;53.20;;;25.88;;
37157;SDS011;23050;51.776;22.638;2023-01-30T11:28:23;43.97;;;21.48;;
37157;SDS011;23050;51.776;22.638;2023-01-30T11:30:55;49.33;;;24.80;;
37157;SDS011;23050;51.776;22.638;2023-01-30T11:33:23;55.35;;;23.80;;
37157;SDS011;23050;51.776;22.638;2023-01-30T11:36:06;45.97;;;23.45;;
37157;SDS011;23050;51.776;22.638;2023-01-30T11:39:32;51.45;;;25.85;;
37157;SDS011;23050;51.776;22.638;2023-01-30T11:41:40;61.13;;;27.30;;
37157;SDS011;23050;51.776;22.638;2023-01-30T11:44:07;41.25;;;21.33;;
37157;SDS011;23050;51.776;22.638;2023-01-30T11:46:34;51.85;;;27.20;;
37157;SDS011;23050;51.776;22.638;2023-01-30T11:49:04;58.55;;;29.58;;
37157;SDS011;23050;51.776;22.638;2023-01-30T11:51:38;48.95;;;24.15;;
37157;SDS011;23050;51.776;22.638;2023-01-30T11:56:38;57.55;;;27.95;;
37157;SDS011;23050;51.776;22.638;2023-01-30T12:01:47;59.38;;;29.70;;
37157;SDS011;23050;51.776;22.638;2023-01-30T12:04:13;65.40;;;31.00;;
37157;SDS011;23050;51.776;22.638;2023-01-30T12:06:40;57.05;;;26.45;;
37157;SDS011;23050;51.776;22.638;2023-01-30T12:12:00;61.85;;;29.50;;
37157;SDS011;23050;51.776;22.638;2023-01-30T12:14:35;56.05;;;30.95;;
37157;SDS011;23050;51.776;22.638;2023-01-30T12:20:02;52.50;;;25.67;;
37157;SDS011;23050;51.776;22.638;2023-01-30T12:25:19;65.78;;;31.27;;
37157;SDS011;23050;51.776;22.638;2023-01-30T12:27:57;65.40;;;31.75;;
37157;SDS011;23050;51.776;22.638;2023-01-30T12:33:02;64.15;;;35.15;;
37157;SDS011;23050;51.776;22.638;2023-01-30T12:35:33;71.35;;;34.00;;
37157;SDS011;23050;51.776;22.638;2023-01-30T12:46:34;76.90;;;40.25;;
37157;SDS011;23050;51.776;22.638;2023-01-30T12:55:20;67.90;;;35.10;;
37157;SDS011;23050;51.776;22.638;2023-01-30T12:58:10;74.22;;;39.83;;
37157;SDS011;23050;51.776;22.638;2023-01-30T13:14:33;78.40;;;39.15;;
37157;SDS011;23050;51.776;22.638;2023-01-30T13:20:27;122.50;;;58.13;;
37157;SDS011;23050;51.776;22.638;2023-01-30T13:23:19;98.10;;;50.35;;
37157;SDS011;23050;51.776;22.638;2023-01-30T13:26:06;78.40;;;36.58;;
37157;SDS011;23050;51.776;22.638;2023-01-30T13:28:46;80.25;;;39.20;;
37157;SDS011;23050;51.776;22.638;2023-01-30T13:31:15;86.03;;;41.78;;
37157;SDS011;23050;51.776;22.638;2023-01-30T13:33:45;84.82;;;42.05;;
37157;SDS011;23050;51.776;22.638;2023-01-30T13:36:18;77.95;;;39.60;;
37157;SDS011;23050;51.776;22.638;2023-01-30T13:38:53;79.45;;;39.53;;
37157;SDS011;23050;51.776;22.638;2023-01-30T13:41:20;73.82;;;34.65;;
37157;SDS011;23050;51.776;22.638;2023-01-30T13:43:49;62.63;;;30.42;;
37157;SDS011;23050;51.776;22.638;2023-01-30T13:46:18;71.72;;;34.30;;
37157;SDS011;23050;51.776;22.638;2023-01-30T13:49:05;63.97;;;28.73;;
37157;SDS011;23050;51.776;22.638;2023-01-30T13:55:30;71.15;;;35.05;;
37157;SDS011;23050;51.776;22.638;2023-01-30T14:00:25;56.78;;;28.25;;
37157;SDS011;23050;51.776;22.638;2023-01-30T14:08:16;70.82;;;33.97;;
37157;SDS011;23050;51.776;22.638;2023-01-30T14:10:44;75.95;;;37.75;;
37157;SDS011;23050;51.776;22.638;2023-01-30T14:13:12;95.03;;;46.47;;
37157;SDS011;23050;51.776;22.638;2023-01-30T14:15:40;122.00;;;57.50;;
37157;SDS011;23050;51.776;22.638;2023-01-30T14:18:23;85.43;;;41.03;;
37157;SDS011;23050;51.776;22.638;2023-01-30T14:21:17;74.70;;;38.35;;
37157;SDS011;23050;51.776;22.638;2023-01-30T14:23:58;68.82;;;30.92;;
37157;SDS011;23050;51.776;22.638;2023-01-30T14:34:44;72.35;;;33.00;;
37157;SDS011;23050;51.776;22.638;2023-01-30T14:37:25;75.40;;;37.97;;
37157;SDS011;23050;51.776;22.638;2023-01-30T14:39:54;60.30;;;34.17;;
37157;SDS011;23050;51.776;22.638;2023-01-30T14:42:25;65.13;;;29.48;;
37157;SDS011;23050;51.776;22.638;2023-01-30T14:47:40;68.85;;;39.25;;
37157;SDS011;23050;51.776;22.638;2023-01-30T14:50:15;56.15;;;31.50;;
37157;SDS011;23050;51.776;22.638;2023-01-30T14:52:44;53.58;;;26.73;;
37157;SDS011;23050;51.776;22.638;2023-01-30T14:55:17;65.07;;;32.15;;
37157;SDS011;23050;51.776;22.638;2023-01-30T14:57:53;53.58;;;26.05;;
37157;SDS011;23050;51.776;22.638;2023-01-30T15:00:23;51.63;;;25.83;;
37157;SDS011;23050;51.776;22.638;2023-01-30T15:02:54;53.75;;;26.98;;
37157;SDS011;23050;51.776;22.638;2023-01-30T15:10:53;52.70;;;27.90;;
37157;SDS011;23050;51.776;22.638;2023-01-30T15:16:10;87.53;;;40.50;;
37157;SDS011;23050;51.776;22.638;2023-01-30T15:19:15;63.17;;;30.77;;
37157;SDS011;23050;51.776;22.638;2023-01-30T15:27:25;56.00;;;29.13;;
37157;SDS011;23050;51.776;22.638;2023-01-30T15:33:09;62.95;;;31.50;;
37157;SDS011;23050;51.776;22.638;2023-01-30T15:35:45;53.15;;;27.48;;
37157;SDS011;23050;51.776;22.638;2023-01-30T15:38:27;58.65;;;29.45;;
37157;SDS011;23050;51.776;22.638;2023-01-30T15:41:01;54.08;;;27.30;;
37157;SDS011;23050;51.776;22.638;2023-01-30T15:46:11;106.78;;;53.45;;
37157;SDS011;23050;51.776;22.638;2023-01-30T15:48:59;117.72;;;55.25;;
37157;SDS011;23050;51.776;22.638;2023-01-30T15:51:45;63.33;;;35.55;;
37157;SDS011;23050;51.776;22.638;2023-01-30T15:54:13;66.55;;;33.03;;
37157;SDS011;23050;51.776;22.638;2023-01-30T15:56:42;51.53;;;25.35;;
37157;SDS011;23050;51.776;22.638;2023-01-30T15:59:27;73.22;;;35.25;;
37157;SDS011;23050;51.776;22.638;2023-01-30T16:04:38;77.18;;;38.58;;
37157;SDS011;23050;51.776;22.638;2023-01-30T16:07:19;55.33;;;28.35;;
37157;SDS011;23050;51.776;22.638;2023-01-30T16:09:55;68.55;;;34.03;;
37157;SDS011;23050;51.776;22.638;2023-01-30T16:12:22;72.07;;;37.88;;
37157;SDS011;23050;51.776;22.638;2023-01-30T16:14:52;76.75;;;41.60;;
37157;SDS011;23050;51.776;22.638;2023-01-30T16:17:23;115.45;;;49.80;;
37157;SDS011;23050;51.776;22.638;2023-01-30T16:19:51;56.45;;;28.70;;
37157;SDS011;23050;51.776;22.638;2023-01-30T16:22:18;85.95;;;42.75;;
37157;SDS011;23050;51.776;22.638;2023-01-30T16:24:46;110.70;;;56.33;;
37157;SDS011;23050;51.776;22.638;2023-01-30T16:27:17;86.50;;;42.25;;
37157;SDS011;23050;51.776;22.638;2023-01-30T16:29:54;145.77;;;71.47;;
37157;SDS011;23050;51.776;22.638;2023-01-30T16:32:23;98.85;;;45.05;;
37157;SDS011;23050;51.776;22.638;2023-01-30T16:37:50;75.43;;;38.50;;
37157;SDS011;23050;51.776;22.638;2023-01-30T16:40:17;76.05;;;35.83;;
37157;SDS011;23050;51.776;22.638;2023-01-30T16:51:34;73.13;;;34.35;;
37157;SDS011;23050;51.776;22.638;2023-01-30T16:53:43;75.80;;;41.63;;
37157;SDS011;23050;51.776;22.638;2023-01-30T16:56:13;74.45;;;42.15;;
37157;SDS011;23050;51.776;22.638;2023-01-30T16:58:41;79.00;;;44.83;;
37157;SDS011;23050;51.776;22.638;2023-01-30T17:01:09;66.60;;;36.65;;
37157;SDS011;23050;51.776;22.638;2023-01-30T17:03:36;75.80;;;43.60;;
37157;SDS011;23050;51.776;22.638;2023-01-30T17:06:47;83.45;;;41.33;;